sensor_id;sensor_type;location;lat;lon;timestamp;temperature;humidity
20288;DHT22;10303;51.960;8.372;2023-11-21T00:01:38;10.40;99.90
20288;DHT22;10303;51.960;8.372;2023-11-21T00:04:04;10.40;99.90
20288;DHT22;10303;51.960;8.372;2023-11-21T00:06:30;10.40;99.90
20288;DHT22;10303;51.960;8.372;2023-11-21T00:08:56;10.40;99.90
20288;DHT22;10303;51.960;8.372;2023-11-21T00:11:22;10.40;99.90
20288;DHT22;10303;51.960;8.372;2023-11-21T00:13:48;10.50;99.90
20288;DHT22;10303;51.960;8.372;2023-11-21T00:16:14;10.50;99.90
20288;DHT22;10303;51.960;8.372;2023-11-21T00:18:40;10.50;99.90
20288;DHT22;10303;51.960;8.372;2023-11-21T00:21:06;10.60;99.90
20288;DHT22;10303;51.960;8.372;2023-11-21T00:23:32;10.60;99.90
20288;DHT22;10303;51.960;8.372;2023-11-21T00:25:58;10.70;99.90
20288;DHT22;10303;51.960;8.372;2023-11-21T00:28:25;10.70;99.90
20288;DHT22;10303;51.960;8.372;2023-11-21T00:30:51;10.70;99.90
20288;DHT22;10303;51.960;8.372;2023-11-21T00:33:18;10.70;99.90
20288;DHT22;10303;51.960;8.372;2023-11-21T00:35:45;10.80;99.90
20288;DHT22;10303;51.960;8.372;2023-11-21T00:38:11;10.80;99.90
20288;DHT22;10303;51.960;8.372;2023-11-21T00:40:36;10.80;99.90
20288;DHT22;10303;51.960;8.372;2023-11-21T00:43:03;10.80;99.90
20288;DHT22;10303;51.960;8.372;2023-11-21T00:45:29;10.90;99.90
20288;DHT22;10303;51.960;8.372;2023-11-21T00:47:55;10.90;99.90
20288;DHT22;10303;51.960;8.372;2023-11-21T00:50:22;10.90;99.90
20288;DHT22;10303;51.960;8.372;2023-11-21T00:52:48;11.00;99.90
20288;DHT22;10303;51.960;8.372;2023-11-21T00:55:14;11.00;99.90
20288;DHT22;10303;51.960;8.372;2023-11-21T00:57:40;11.00;99.90
20288;DHT22;10303;51.960;8.372;2023-11-21T01:00:06;11.00;99.90
20288;DHT22;10303;51.960;8.372;2023-11-21T01:02:46;11.10;99.90
20288;DHT22;10303;51.960;8.372;2023-11-21T01:05:14;11.10;99.90
20288;DHT22;10303;51.960;8.372;2023-11-21T01:07:40;11.10;99.90
20288;DHT22;10303;51.960;8.372;2023-11-21T01:10:06;11.10;99.90
20288;DHT22;10303;51.960;8.372;2023-11-21T01:12:38;11.10;99.90
20288;DHT22;10303;51.960;8.372;2023-11-21T01:15:05;11.20;99.90
20288;DHT22;10303;51.960;8.372;2023-11-21T01:17:37;11.20;99.90
20288;DHT22;10303;51.960;8.372;2023-11-21T01:20:04;11.20;99.90
20288;DHT22;10303;51.960;8.372;2023-11-21T01:22:36;11.20;99.90
20288;DHT22;10303;51.960;8.372;2023-11-21T01:25:02;11.30;99.90
20288;DHT22;10303;51.960;8.372;2023-11-21T01:27:32;11.30;99.90
20288;DHT22;10303;51.960;8.372;2023-11-21T01:30:03;11.30;99.90
20288;DHT22;10303;51.960;8.372;2023-11-21T01:32:30;11.30;99.90
20288;DHT22;10303;51.960;8.372;2023-11-21T01:34:56;11.40;99.90
20288;DHT22;10303;51.960;8.372;2023-11-21T01:37:21;11.40;99.90
20288;DHT22;10303;51.960;8.372;2023-11-21T01:39:48;11.40;99.90
20288;DHT22;10303;51.960;8.372;2023-11-21T01:42:14;11.40;99.90
20288;DHT22;10303;51.960;8.372;2023-11-21T01:44:40;11.40;99.90
20288;DHT22;10303;51.960;8.372;2023-11-21T01:47:07;11.50;99.90
20288;DHT22;10303;51.960;8.372;2023-11-21T01:49:35;11.40;99.90
20288;DHT22;10303;51.960;8.372;2023-11-21T01:52:02;11.50;99.90
20288;DHT22;10303;51.960;8.372;2023-11-21T01:54:30;11.50;99.90
20288;DHT22;10303;51.960;8.372;2023-11-21T01:57:00;11.50;99.90
20288;DHT22;10303;51.960;8.372;2023-11-21T01:59:34;11.50;99.90
20288;DHT22;10303;51.960;8.372;2023-11-21T02:02:05;11.50;99.90
20288;DHT22;10303;51.960;8.372;2023-11-21T02:04:33;11.50;99.90
20288;DHT22;10303;51.960;8.372;2023-11-21T02:07:00;11.50;99.90
20288;DHT22;10303;51.960;8.372;2023-11-21T02:09:27;11.60;99.90
20288;DHT22;10303;51.960;8.372;2023-11-21T02:11:56;11.50;99.90
20288;DHT22;10303;51.960;8.372;2023-11-21T02:14:23;11.60;99.90
20288;DHT22;10303;51.960;8.372;2023-11-21T02:16:51;11.60;99.90
20288;DHT22;10303;51.960;8.372;2023-11-21T02:19:18;11.60;99.90
20288;DHT22;10303;51.960;8.372;2023-11-21T02:21:52;11.60;99.90
20288;DHT22;10303;51.960;8.372;2023-11-21T02:24:20;11.60;99.90
20288;DHT22;10303;51.960;8.372;2023-11-21T02:26:47;11.60;99.90
20288;DHT22;10303;51.960;8.372;2023-11-21T02:29:14;11.70;99.90
20288;DHT22;10303;51.960;8.372;2023-11-21T02:31:43;11.70;99.90
20288;DHT22;10303;51.960;8.372;2023-11-21T02:34:16;11.70;99.90
20288;DHT22;10303;51.960;8.372;2023-11-21T02:36:44;11.70;99.90
20288;DHT22;10303;51.960;8.372;2023-11-21T02:39:11;11.70;99.90
20288;DHT22;10303;51.960;8.372;2023-11-21T02:41:37;11.80;99.90
20288;DHT22;10303;51.960;8.372;2023-11-21T02:44:05;11.80;99.90
20288;DHT22;10303;51.960;8.372;2023-11-21T02:46:36;11.80;99.90
20288;DHT22;10303;51.960;8.372;2023-11-21T02:49:06;11.80;99.90
20288;DHT22;10303;51.960;8.372;2023-11-21T02:51:33;11.80;99.90
20288;DHT22;10303;51.960;8.372;2023-11-21T02:54:00;11.80;99.90
20288;DHT22;10303;51.960;8.372;2023-11-21T02:56:28;11.80;99.90
20288;DHT22;10303;51.960;8.372;2023-11-21T02:59:00;11.90;99.90
20288;DHT22;10303;51.960;8.372;2023-11-21T03:01:26;11.80;99.90
20288;DHT22;10303;51.960;8.372;2023-11-21T03:03:53;11.90;99.90
20288;DHT22;10303;51.960;8.372;2023-11-21T03:06:20;11.90;99.90
20288;DHT22;10303;51.960;8.372;2023-11-21T03:08:47;11.90;99.90
20288;DHT22;10303;51.960;8.372;2023-11-21T03:11:13;11.90;99.90
20288;DHT22;10303;51.960;8.372;2023-11-21T03:13:40;11.90;99.90
20288;DHT22;10303;51.960;8.372;2023-11-21T03:16:11;11.90;99.90
20288;DHT22;10303;51.960;8.372;2023-11-21T03:18:38;12.00;99.90
20288;DHT22;10303;51.960;8.372;2023-11-21T03:21:05;12.00;99.90
20288;DHT22;10303;51.960;8.372;2023-11-21T03:23:34;11.90;99.90
20288;DHT22;10303;51.960;8.372;2023-11-21T03:26:03;12.00;99.90
20288;DHT22;10303;51.960;8.372;2023-11-21T03:28:29;12.00;99.90
20288;DHT22;10303;51.960;8.372;2023-11-21T03:30:56;12.00;99.90
20288;DHT22;10303;51.960;8.372;2023-11-21T03:33:23;12.00;99.90
20288;DHT22;10303;51.960;8.372;2023-11-21T03:35:50;12.00;99.90
20288;DHT22;10303;51.960;8.372;2023-11-21T03:38:18;12.00;99.90
20288;DHT22;10303;51.960;8.372;2023-11-21T03:40:45;12.00;99.90
20288;DHT22;10303;51.960;8.372;2023-11-21T03:43:10;12.00;99.90
20288;DHT22;10303;51.960;8.372;2023-11-21T03:45:37;12.00;99.90
20288;DHT22;10303;51.960;8.372;2023-11-21T03:48:03;11.90;99.90
20288;DHT22;10303;51.960;8.372;2023-11-21T03:50:29;12.00;99.90
20288;DHT22;10303;51.960;8.372;2023-11-21T03:52:55;11.90;99.90
20288;DHT22;10303;51.960;8.372;2023-11-21T03:55:21;11.90;99.90
20288;DHT22;10303;51.960;8.372;2023-11-21T03:57:49;12.00;99.90
20288;DHT22;10303;51.960;8.372;2023-11-21T04:00:15;12.00;99.90
20288;DHT22;10303;51.960;8.372;2023-11-21T04:02:41;11.90;99.90
20288;DHT22;10303;51.960;8.372;2023-11-21T04:05:07;12.00;99.90
20288;DHT22;10303;51.960;8.372;2023-11-21T04:07:35;12.00;99.90
20288;DHT22;10303;51.960;8.372;2023-11-21T04:10:02;11.90;99.90
20288;DHT22;10303;51.960;8.372;2023-11-21T04:12:29;12.00;99.90
20288;DHT22;10303;51.960;8.372;2023-11-21T04:14:55;11.90;99.90
20288;DHT22;10303;51.960;8.372;2023-11-21T04:17:21;11.90;99.90
20288;DHT22;10303;51.960;8.372;2023-11-21T04:19:47;11.90;99.90
20288;DHT22;10303;51.960;8.372;2023-11-21T04:22:12;11.90;99.90
20288;DHT22;10303;51.960;8.372;2023-11-21T04:24:38;12.00;99.90
20288;DHT22;10303;51.960;8.372;2023-11-21T04:27:04;12.00;99.90
20288;DHT22;10303;51.960;8.372;2023-11-21T04:29:30;11.90;99.90
20288;DHT22;10303;51.960;8.372;2023-11-21T04:31:56;11.90;99.90
20288;DHT22;10303;51.960;8.372;2023-11-21T04:34:22;11.90;99.90
20288;DHT22;10303;51.960;8.372;2023-11-21T04:36:50;11.90;99.90
20288;DHT22;10303;51.960;8.372;2023-11-21T04:39:16;11.80;99.90
20288;DHT22;10303;51.960;8.372;2023-11-21T04:41:41;11.90;99.90
20288;DHT22;10303;51.960;8.372;2023-11-21T04:44:08;11.90;99.90
20288;DHT22;10303;51.960;8.372;2023-11-21T04:46:34;11.90;99.90
20288;DHT22;10303;51.960;8.372;2023-11-21T04:49:00;11.90;99.90
20288;DHT22;10303;51.960;8.372;2023-11-21T04:51:26;11.90;99.90
20288;DHT22;10303;51.960;8.372;2023-11-21T04:53:53;11.90;99.90
20288;DHT22;10303;51.960;8.372;2023-11-21T04:56:18;11.80;99.90
20288;DHT22;10303;51.960;8.372;2023-11-21T04:58:45;11.90;99.90
20288;DHT22;10303;51.960;8.372;2023-11-21T05:01:11;11.80;99.90
20288;DHT22;10303;51.960;8.372;2023-11-21T05:03:37;11.90;99.90
20288;DHT22;10303;51.960;8.372;2023-11-21T05:06:04;11.90;99.90
20288;DHT22;10303;51.960;8.372;2023-11-21T05:08:31;11.90;99.90
20288;DHT22;10303;51.960;8.372;2023-11-21T05:10:57;11.90;99.90
20288;DHT22;10303;51.960;8.372;2023-11-21T05:13:23;11.90;99.90
20288;DHT22;10303;51.960;8.372;2023-11-21T05:15:54;11.80;99.90
20288;DHT22;10303;51.960;8.372;2023-11-21T05:18:22;11.90;99.90
20288;DHT22;10303;51.960;8.372;2023-11-21T05:20:48;11.90;99.90
20288;DHT22;10303;51.960;8.372;2023-11-21T05:23:15;11.80;99.90
20288;DHT22;10303;51.960;8.372;2023-11-21T05:25:41;11.80;99.90
20288;DHT22;10303;51.960;8.372;2023-11-21T05:28:07;11.80;99.90
20288;DHT22;10303;51.960;8.372;2023-11-21T05:30:33;11.80;99.90
20288;DHT22;10303;51.960;8.372;2023-11-21T05:32:59;11.80;99.90
20288;DHT22;10303;51.960;8.372;2023-11-21T05:35:25;11.80;99.90
20288;DHT22;10303;51.960;8.372;2023-11-21T05:37:52;11.80;99.90
20288;DHT22;10303;51.960;8.372;2023-11-21T05:40:18;11.80;99.90
20288;DHT22;10303;51.960;8.372;2023-11-21T05:42:44;11.80;99.90
20288;DHT22;10303;51.960;8.372;2023-11-21T05:45:10;11.80;99.90
20288;DHT22;10303;51.960;8.372;2023-11-21T05:47:37;11.80;99.90
20288;DHT22;10303;51.960;8.372;2023-11-21T05:50:07;11.80;99.90
20288;DHT22;10303;51.960;8.372;2023-11-21T05:52:38;11.80;99.90
20288;DHT22;10303;51.960;8.372;2023-11-21T05:55:07;11.80;99.90
20288;DHT22;10303;51.960;8.372;2023-11-21T05:57:38;11.80;99.90
20288;DHT22;10303;51.960;8.372;2023-11-21T06:00:05;11.80;99.90
20288;DHT22;10303;51.960;8.372;2023-11-21T06:02:38;11.80;99.90
20288;DHT22;10303;51.960;8.372;2023-11-21T06:05:05;11.80;99.90
20288;DHT22;10303;51.960;8.372;2023-11-21T06:07:32;11.80;99.90
20288;DHT22;10303;51.960;8.372;2023-11-21T06:09:59;11.80;99.90
20288;DHT22;10303;51.960;8.372;2023-11-21T06:12:25;11.80;99.90
20288;DHT22;10303;51.960;8.372;2023-11-21T06:14:50;11.80;99.90
20288;DHT22;10303;51.960;8.372;2023-11-21T06:17:16;11.80;99.90
20288;DHT22;10303;51.960;8.372;2023-11-21T06:19:44;11.70;99.90
20288;DHT22;10303;51.960;8.372;2023-11-21T06:22:11;11.70;99.90
20288;DHT22;10303;51.960;8.372;2023-11-21T06:24:37;11.80;99.90
20288;DHT22;10303;51.960;8.372;2023-11-21T06:27:04;11.70;99.90
20288;DHT22;10303;51.960;8.372;2023-11-21T06:29:30;11.70;99.90
20288;DHT22;10303;51.960;8.372;2023-11-21T06:31:57;11.70;99.90
20288;DHT22;10303;51.960;8.372;2023-11-21T06:34:24;11.70;99.90
20288;DHT22;10303;51.960;8.372;2023-11-21T06:36:50;11.70;99.90
20288;DHT22;10303;51.960;8.372;2023-11-21T06:39:17;11.70;99.90
20288;DHT22;10303;51.960;8.372;2023-11-21T06:41:43;11.60;99.90
20288;DHT22;10303;51.960;8.372;2023-11-21T06:44:09;11.60;99.90
20288;DHT22;10303;51.960;8.372;2023-11-21T06:46:34;11.60;99.90
20288;DHT22;10303;51.960;8.372;2023-11-21T06:49:00;11.60;99.90
20288;DHT22;10303;51.960;8.372;2023-11-21T06:51:26;11.60;99.90
20288;DHT22;10303;51.960;8.372;2023-11-21T06:53:52;11.60;99.90
20288;DHT22;10303;51.960;8.372;2023-11-21T06:56:18;11.60;99.90
20288;DHT22;10303;51.960;8.372;2023-11-21T06:58:47;11.60;99.90
20288;DHT22;10303;51.960;8.372;2023-11-21T07:01:14;11.50;99.90
20288;DHT22;10303;51.960;8.372;2023-11-21T07:03:41;11.50;99.90
20288;DHT22;10303;51.960;8.372;2023-11-21T07:06:08;11.40;99.90
20288;DHT22;10303;51.960;8.372;2023-11-21T07:08:34;11.50;99.90
20288;DHT22;10303;51.960;8.372;2023-11-21T07:11:00;11.40;99.90
20288;DHT22;10303;51.960;8.372;2023-11-21T07:13:25;11.40;99.90
20288;DHT22;10303;51.960;8.372;2023-11-21T07:15:51;11.40;99.90
20288;DHT22;10303;51.960;8.372;2023-11-21T07:18:17;11.40;99.90
20288;DHT22;10303;51.960;8.372;2023-11-21T07:20:43;11.50;99.90
20288;DHT22;10303;51.960;8.372;2023-11-21T07:23:09;11.40;99.90
20288;DHT22;10303;51.960;8.372;2023-11-21T07:25:36;11.40;99.90
20288;DHT22;10303;51.960;8.372;2023-11-21T07:28:02;11.40;99.90
20288;DHT22;10303;51.960;8.372;2023-11-21T07:30:30;11.40;99.90
20288;DHT22;10303;51.960;8.372;2023-11-21T07:32:57;11.40;99.90
20288;DHT22;10303;51.960;8.372;2023-11-21T07:35:22;11.40;99.90
20288;DHT22;10303;51.960;8.372;2023-11-21T07:37:48;11.40;99.90
20288;DHT22;10303;51.960;8.372;2023-11-21T07:40:15;11.30;99.90
20288;DHT22;10303;51.960;8.372;2023-11-21T07:42:42;11.30;99.90
20288;DHT22;10303;51.960;8.372;2023-11-21T07:45:10;11.30;99.90
20288;DHT22;10303;51.960;8.372;2023-11-21T07:47:37;11.30;99.90
20288;DHT22;10303;51.960;8.372;2023-11-21T07:50:05;11.30;99.90
20288;DHT22;10303;51.960;8.372;2023-11-21T07:52:33;11.20;99.90
20288;DHT22;10303;51.960;8.372;2023-11-21T07:54:59;11.20;99.90
20288;DHT22;10303;51.960;8.372;2023-11-21T07:57:25;11.10;99.90
20288;DHT22;10303;51.960;8.372;2023-11-21T07:59:51;11.10;99.90
20288;DHT22;10303;51.960;8.372;2023-11-21T08:02:19;11.20;99.90
20288;DHT22;10303;51.960;8.372;2023-11-21T08:04:45;11.20;99.90
20288;DHT22;10303;51.960;8.372;2023-11-21T08:07:11;11.30;99.90
20288;DHT22;10303;51.960;8.372;2023-11-21T08:09:37;11.30;99.90
20288;DHT22;10303;51.960;8.372;2023-11-21T08:12:03;11.20;99.90
20288;DHT22;10303;51.960;8.372;2023-11-21T08:14:30;11.20;99.90
20288;DHT22;10303;51.960;8.372;2023-11-21T08:16:56;11.20;99.90
20288;DHT22;10303;51.960;8.372;2023-11-21T08:19:23;11.20;99.90
20288;DHT22;10303;51.960;8.372;2023-11-21T08:21:52;11.20;99.90
20288;DHT22;10303;51.960;8.372;2023-11-21T08:24:21;11.20;99.90
20288;DHT22;10303;51.960;8.372;2023-11-21T08:26:47;11.30;99.90
20288;DHT22;10303;51.960;8.372;2023-11-21T08:29:13;11.30;99.90
20288;DHT22;10303;51.960;8.372;2023-11-21T08:31:39;11.30;99.90
20288;DHT22;10303;51.960;8.372;2023-11-21T08:34:06;11.30;99.90
20288;DHT22;10303;51.960;8.372;2023-11-21T08:36:32;11.40;99.90
20288;DHT22;10303;51.960;8.372;2023-11-21T08:38:58;11.40;99.90
20288;DHT22;10303;51.960;8.372;2023-11-21T08:41:24;11.40;99.90
20288;DHT22;10303;51.960;8.372;2023-11-21T08:43:50;11.40;99.90
20288;DHT22;10303;51.960;8.372;2023-11-21T08:46:17;11.40;99.90
20288;DHT22;10303;51.960;8.372;2023-11-21T08:48:44;11.20;99.90
20288;DHT22;10303;51.960;8.372;2023-11-21T08:51:10;11.30;99.90
20288;DHT22;10303;51.960;8.372;2023-11-21T08:53:39;11.40;99.90
20288;DHT22;10303;51.960;8.372;2023-11-21T08:56:06;11.50;99.90
20288;DHT22;10303;51.960;8.372;2023-11-21T08:58:32;11.60;99.90
20288;DHT22;10303;51.960;8.372;2023-11-21T09:00:58;11.60;99.90
20288;DHT22;10303;51.960;8.372;2023-11-21T09:03:24;11.60;99.90
20288;DHT22;10303;51.960;8.372;2023-11-21T09:05:50;11.70;99.90
20288;DHT22;10303;51.960;8.372;2023-11-21T09:08:17;11.70;99.90
20288;DHT22;10303;51.960;8.372;2023-11-21T09:10:43;11.80;99.90
20288;DHT22;10303;51.960;8.372;2023-11-21T09:13:13;11.80;99.90
20288;DHT22;10303;51.960;8.372;2023-11-21T09:15:38;11.80;99.90
20288;DHT22;10303;51.960;8.372;2023-11-21T09:18:05;11.90;99.90
20288;DHT22;10303;51.960;8.372;2023-11-21T09:20:31;11.90;99.90
20288;DHT22;10303;51.960;8.372;2023-11-21T09:22:57;12.00;99.90
20288;DHT22;10303;51.960;8.372;2023-11-21T09:25:23;12.00;99.90
20288;DHT22;10303;51.960;8.372;2023-11-21T09:27:49;12.00;99.90
20288;DHT22;10303;51.960;8.372;2023-11-21T09:30:15;12.10;99.90
20288;DHT22;10303;51.960;8.372;2023-11-21T09:32:42;12.10;99.90
20288;DHT22;10303;51.960;8.372;2023-11-21T09:35:11;12.10;99.90
20288;DHT22;10303;51.960;8.372;2023-11-21T09:37:39;12.20;99.90
20288;DHT22;10303;51.960;8.372;2023-11-21T09:40:09;12.20;99.90
20288;DHT22;10303;51.960;8.372;2023-11-21T09:42:57;12.30;99.90
20288;DHT22;10303;51.960;8.372;2023-11-21T09:45:28;12.30;99.90
20288;DHT22;10303;51.960;8.372;2023-11-21T09:47:57;12.30;99.90
20288;DHT22;10303;51.960;8.372;2023-11-21T09:50:24;12.40;99.90
20288;DHT22;10303;51.960;8.372;2023-11-21T09:55:44;12.40;99.90
20288;DHT22;10303;51.960;8.372;2023-11-21T09:58:12;12.40;99.90
20288;DHT22;10303;51.960;8.372;2023-11-21T10:00:47;12.50;99.90
20288;DHT22;10303;51.960;8.372;2023-11-21T10:03:15;12.50;99.90
20288;DHT22;10303;51.960;8.372;2023-11-21T10:05:43;12.50;99.90
20288;DHT22;10303;51.960;8.372;2023-11-21T10:08:12;12.60;99.90
20288;DHT22;10303;51.960;8.372;2023-11-21T10:10:46;12.60;99.90
20288;DHT22;10303;51.960;8.372;2023-11-21T10:13:18;12.60;99.90
20288;DHT22;10303;51.960;8.372;2023-11-21T10:15:50;12.70;99.90
20288;DHT22;10303;51.960;8.372;2023-11-21T10:18:17;12.70;99.90
20288;DHT22;10303;51.960;8.372;2023-11-21T10:20:44;12.70;99.90
20288;DHT22;10303;51.960;8.372;2023-11-21T10:23:19;13.00;99.90
20288;DHT22;10303;51.960;8.372;2023-11-21T10:25:46;12.80;99.90
20288;DHT22;10303;51.960;8.372;2023-11-21T10:28:12;12.80;99.90
20288;DHT22;10303;51.960;8.372;2023-11-21T10:30:38;12.80;99.90
20288;DHT22;10303;51.960;8.372;2023-11-21T10:33:06;12.90;99.90
20288;DHT22;10303;51.960;8.372;2023-11-21T10:35:49;12.90;99.90
20288;DHT22;10303;51.960;8.372;2023-11-21T10:38:21;12.90;99.90
20288;DHT22;10303;51.960;8.372;2023-11-21T10:40:49;12.90;99.90
20288;DHT22;10303;51.960;8.372;2023-11-21T10:43:16;12.90;99.90
20288;DHT22;10303;51.960;8.372;2023-11-21T10:45:44;12.90;99.90
20288;DHT22;10303;51.960;8.372;2023-11-21T10:48:15;12.90;99.90
20288;DHT22;10303;51.960;8.372;2023-11-21T10:50:46;12.90;99.90
20288;DHT22;10303;51.960;8.372;2023-11-21T10:53:12;12.90;99.90
20288;DHT22;10303;51.960;8.372;2023-11-21T10:55:39;13.00;99.90
20288;DHT22;10303;51.960;8.372;2023-11-21T10:58:05;13.00;99.90
20288;DHT22;10303;51.960;8.372;2023-11-21T11:00:34;13.00;99.90
20288;DHT22;10303;51.960;8.372;2023-11-21T11:03:00;13.00;99.90
20288;DHT22;10303;51.960;8.372;2023-11-21T11:05:29;12.90;99.90
20288;DHT22;10303;51.960;8.372;2023-11-21T11:08:05;13.00;99.90
20288;DHT22;10303;51.960;8.372;2023-11-21T11:10:33;12.90;99.90
20288;DHT22;10303;51.960;8.372;2023-11-21T11:13:00;12.90;99.90
20288;DHT22;10303;51.960;8.372;2023-11-21T11:15:27;12.90;99.90
20288;DHT22;10303;51.960;8.372;2023-11-21T11:17:54;12.90;99.90
20288;DHT22;10303;51.960;8.372;2023-11-21T11:20:30;12.90;99.90
20288;DHT22;10303;51.960;8.372;2023-11-21T11:26:14;12.80;99.90
20288;DHT22;10303;51.960;8.372;2023-11-21T11:32:12;12.80;99.90
20288;DHT22;10303;51.960;8.372;2023-11-21T11:35:03;12.80;99.90
20288;DHT22;10303;51.960;8.372;2023-11-21T11:37:33;12.70;99.90
20288;DHT22;10303;51.960;8.372;2023-11-21T11:40:00;12.70;99.90
20288;DHT22;10303;51.960;8.372;2023-11-21T11:42:26;12.70;99.90
20288;DHT22;10303;51.960;8.372;2023-11-21T11:44:53;12.70;99.90
20288;DHT22;10303;51.960;8.372;2023-11-21T11:47:24;12.70;99.90
20288;DHT22;10303;51.960;8.372;2023-11-21T11:50:06;12.70;99.90
20288;DHT22;10303;51.960;8.372;2023-11-21T11:52:46;12.70;99.90
20288;DHT22;10303;51.960;8.372;2023-11-21T11:55:15;12.70;99.90
20288;DHT22;10303;51.960;8.372;2023-11-21T11:57:45;12.70;99.90
20288;DHT22;10303;51.960;8.372;2023-11-21T12:02:57;12.70;99.90
20288;DHT22;10303;51.960;8.372;2023-11-21T12:05:26;12.60;99.90
20288;DHT22;10303;51.960;8.372;2023-11-21T12:08:00;12.60;99.90
20288;DHT22;10303;51.960;8.372;2023-11-21T12:10:29;12.60;99.90
20288;DHT22;10303;51.960;8.372;2023-11-21T12:12:57;12.60;99.90
20288;DHT22;10303;51.960;8.372;2023-11-21T12:15:25;12.60;99.90
20288;DHT22;10303;51.960;8.372;2023-11-21T12:17:52;12.50;99.90
20288;DHT22;10303;51.960;8.372;2023-11-21T12:20:19;12.50;99.90
20288;DHT22;10303;51.960;8.372;2023-11-21T12:25:15;12.50;99.90
20288;DHT22;10303;51.960;8.372;2023-11-21T12:27:46;12.50;99.90
20288;DHT22;10303;51.960;8.372;2023-11-21T12:30:15;12.50;99.90
20288;DHT22;10303;51.960;8.372;2023-11-21T12:32:43;12.50;99.90
20288;DHT22;10303;51.960;8.372;2023-11-21T12:35:12;12.40;99.90
20288;DHT22;10303;51.960;8.372;2023-11-21T12:37:39;12.40;99.90
20288;DHT22;10303;51.960;8.372;2023-11-21T12:40:07;12.40;99.90
20288;DHT22;10303;51.960;8.372;2023-11-21T12:42:34;12.40;99.90
20288;DHT22;10303;51.960;8.372;2023-11-21T12:48:04;12.30;99.90
20288;DHT22;10303;51.960;8.372;2023-11-21T12:50:34;12.30;99.90
20288;DHT22;10303;51.960;8.372;2023-11-21T12:53:12;12.30;99.90
20288;DHT22;10303;51.960;8.372;2023-11-21T12:55:38;12.30;99.90
20288;DHT22;10303;51.960;8.372;2023-11-21T12:58:09;12.30;99.90
20288;DHT22;10303;51.960;8.372;2023-11-21T13:00:38;12.20;99.90
20288;DHT22;10303;51.960;8.372;2023-11-21T13:03:08;12.20;99.90
20288;DHT22;10303;51.960;8.372;2023-11-21T13:05:39;12.30;99.90
20288;DHT22;10303;51.960;8.372;2023-11-21T13:08:11;12.30;99.90
20288;DHT22;10303;51.960;8.372;2023-11-21T13:10:40;12.30;99.90
20288;DHT22;10303;51.960;8.372;2023-11-21T13:13:11;12.30;99.90
20288;DHT22;10303;51.960;8.372;2023-11-21T13:15:54;12.30;99.90
20288;DHT22;10303;51.960;8.372;2023-11-21T13:18:27;12.40;99.90
20288;DHT22;10303;51.960;8.372;2023-11-21T13:20:56;12.50;99.90
20288;DHT22;10303;51.960;8.372;2023-11-21T13:23:23;12.50;99.90
20288;DHT22;10303;51.960;8.372;2023-11-21T13:25:50;12.50;99.90
20288;DHT22;10303;51.960;8.372;2023-11-21T13:28:16;12.50;99.90
20288;DHT22;10303;51.960;8.372;2023-11-21T13:30:49;12.40;99.90
20288;DHT22;10303;51.960;8.372;2023-11-21T13:33:18;12.50;99.90
20288;DHT22;10303;51.960;8.372;2023-11-21T13:35:47;12.50;99.90
20288;DHT22;10303;51.960;8.372;2023-11-21T13:38:17;12.50;99.90
20288;DHT22;10303;51.960;8.372;2023-11-21T13:40:49;12.40;99.90
20288;DHT22;10303;51.960;8.372;2023-11-21T13:43:20;12.50;99.90
20288;DHT22;10303;51.960;8.372;2023-11-21T13:45:50;12.40;99.90
20288;DHT22;10303;51.960;8.372;2023-11-21T13:48:21;12.40;99.90
20288;DHT22;10303;51.960;8.372;2023-11-21T13:50:54;12.40;99.90
20288;DHT22;10303;51.960;8.372;2023-11-21T13:53:38;12.40;99.90
20288;DHT22;10303;51.960;8.372;2023-11-21T13:56:07;12.30;99.90
20288;DHT22;10303;51.960;8.372;2023-11-21T13:58:34;12.30;99.90
20288;DHT22;10303;51.960;8.372;2023-11-21T14:01:20;12.30;99.90
20288;DHT22;10303;51.960;8.372;2023-11-21T14:04:02;12.30;99.90
20288;DHT22;10303;51.960;8.372;2023-11-21T14:06:43;12.20;99.90
20288;DHT22;10303;51.960;8.372;2023-11-21T14:09:21;12.20;99.90
20288;DHT22;10303;51.960;8.372;2023-11-21T14:11:55;12.20;99.90
20288;DHT22;10303;51.960;8.372;2023-11-21T14:14:25;12.20;99.90
20288;DHT22;10303;51.960;8.372;2023-11-21T14:16:52;12.20;99.90
20288;DHT22;10303;51.960;8.372;2023-11-21T14:19:18;12.20;99.90
20288;DHT22;10303;51.960;8.372;2023-11-21T14:21:45;12.20;99.90
20288;DHT22;10303;51.960;8.372;2023-11-21T14:24:12;12.10;99.90
20288;DHT22;10303;51.960;8.372;2023-11-21T14:26:41;12.10;99.90
20288;DHT22;10303;51.960;8.372;2023-11-21T14:29:09;12.10;99.90
20288;DHT22;10303;51.960;8.372;2023-11-21T14:31:38;12.10;99.90
20288;DHT22;10303;51.960;8.372;2023-11-21T14:34:03;12.10;99.90
20288;DHT22;10303;51.960;8.372;2023-11-21T14:36:33;12.10;99.90
20288;DHT22;10303;51.960;8.372;2023-11-21T14:39:00;12.10;99.90
20288;DHT22;10303;51.960;8.372;2023-11-21T14:41:26;12.10;99.90
20288;DHT22;10303;51.960;8.372;2023-11-21T14:43:54;12.00;99.90
20288;DHT22;10303;51.960;8.372;2023-11-21T14:46:22;12.00;99.90
20288;DHT22;10303;51.960;8.372;2023-11-21T14:48:49;12.00;99.90
20288;DHT22;10303;51.960;8.372;2023-11-21T14:51:26;12.00;99.90
20288;DHT22;10303;51.960;8.372;2023-11-21T14:53:54;12.00;99.90
20288;DHT22;10303;51.960;8.372;2023-11-21T14:56:23;12.00;99.90
20288;DHT22;10303;51.960;8.372;2023-11-21T14:58:54;12.00;99.90
20288;DHT22;10303;51.960;8.372;2023-11-21T15:01:25;12.00;99.90
20288;DHT22;10303;51.960;8.372;2023-11-21T15:04:10;11.90;99.90
20288;DHT22;10303;51.960;8.372;2023-11-21T15:06:47;11.90;99.90
20288;DHT22;10303;51.960;8.372;2023-11-21T15:09:13;11.80;99.90
20288;DHT22;10303;51.960;8.372;2023-11-21T15:11:39;11.80;99.90
20288;DHT22;10303;51.960;8.372;2023-11-21T15:14:06;11.70;99.90
20288;DHT22;10303;51.960;8.372;2023-11-21T15:16:35;11.80;99.90
20288;DHT22;10303;51.960;8.372;2023-11-21T15:19:11;11.70;99.90
20288;DHT22;10303;51.960;8.372;2023-11-21T15:21:44;11.70;99.90
20288;DHT22;10303;51.960;8.372;2023-11-21T15:24:12;11.70;99.90
20288;DHT22;10303;51.960;8.372;2023-11-21T15:26:38;11.60;99.90
20288;DHT22;10303;51.960;8.372;2023-11-21T15:29:04;11.70;99.90
20288;DHT22;10303;51.960;8.372;2023-11-21T15:31:30;11.60;99.90
20288;DHT22;10303;51.960;8.372;2023-11-21T15:33:56;11.60;99.90
20288;DHT22;10303;51.960;8.372;2023-11-21T15:36:26;11.60;99.90
20288;DHT22;10303;51.960;8.372;2023-11-21T15:38:53;11.60;99.90
20288;DHT22;10303;51.960;8.372;2023-11-21T15:41:19;11.60;99.90
20288;DHT22;10303;51.960;8.372;2023-11-21T15:43:46;11.50;99.90
20288;DHT22;10303;51.960;8.372;2023-11-21T15:46:14;11.50;99.90
20288;DHT22;10303;51.960;8.372;2023-11-21T15:48:40;11.50;99.90
20288;DHT22;10303;51.960;8.372;2023-11-21T15:51:15;11.50;99.90
20288;DHT22;10303;51.960;8.372;2023-11-21T15:53:42;11.50;99.90